createdAt,value
2022-12-03T00:00:57.060Z,3.40
2022-12-03T00:03:23.861Z,3.40
2022-12-03T00:05:50.827Z,3.40
2022-12-03T00:08:17.617Z,3.40
2022-12-03T00:10:44.440Z,3.40
2022-12-03T00:13:11.147Z,3.40
2022-12-03T00:15:38.032Z,3.50
2022-12-03T00:18:04.981Z,3.40
2022-12-03T00:20:31.718Z,3.40
2022-12-03T00:22:58.463Z,3.40
2022-12-03T00:25:25.199Z,3.40
2022-12-03T00:27:51.953Z,3.40
2022-12-03T00:30:18.810Z,3.50
2022-12-03T00:32:45.676Z,3.40
2022-12-03T00:35:12.518Z,3.40
2022-12-03T00:37:39.199Z,3.40
2022-12-03T00:40:07.987Z,3.40
2022-12-03T00:42:34.822Z,3.40
2022-12-03T00:45:01.531Z,3.40
2022-12-03T00:47:28.304Z,3.40
2022-12-03T00:50:00.358Z,3.40
2022-12-03T00:52:27.072Z,3.50
2022-12-03T00:54:55.142Z,3.40
2022-12-03T00:57:22.038Z,3.40
2022-12-03T00:59:48.736Z,3.40
2022-12-03T01:02:15.574Z,3.40
2022-12-03T01:04:43.440Z,3.40
2022-12-03T01:07:10.351Z,3.40
2022-12-03T01:09:37.083Z,3.40
2022-12-03T01:12:03.910Z,3.40
2022-12-03T01:14:30.971Z,3.40
2022-12-03T01:16:57.710Z,3.40
2022-12-03T01:19:24.966Z,3.40
2022-12-03T01:21:52.462Z,3.40
2022-12-03T01:24:19.651Z,3.40
2022-12-03T01:26:46.610Z,3.40
2022-12-03T01:29:13.855Z,3.40
2022-12-03T01:31:59.244Z,3.40
2022-12-03T01:34:26.059Z,3.50
2022-12-03T01:36:52.952Z,3.50
2022-12-03T01:39:20.202Z,3.50
2022-12-03T01:41:48.356Z,3.50
2022-12-03T01:44:18.911Z,3.50
2022-12-03T01:46:46.782Z,3.50
2022-12-03T01:49:27.418Z,3.50
2022-12-03T01:51:55.531Z,3.40
2022-12-03T01:54:35.797Z,3.40
2022-12-03T01:57:02.799Z,3.40
2022-12-03T01:59:35.572Z,3.50
2022-12-03T02:02:27.318Z,3.50
2022-12-03T02:04:54.849Z,3.50
2022-12-03T02:07:33.558Z,3.50
2022-12-03T02:10:03.812Z,3.60
2022-12-03T02:12:42.081Z,3.50
2022-12-03T02:15:10.373Z,3.60
2022-12-03T02:17:38.080Z,3.60
2022-12-03T02:20:07.960Z,3.60
2022-12-03T02:22:46.320Z,3.60
2022-12-03T02:25:14.212Z,3.60
2022-12-03T02:27:41.699Z,3.50
2022-12-03T02:30:10.321Z,3.60
2022-12-03T02:32:37.554Z,3.60
2022-12-03T02:35:04.916Z,3.60
2022-12-03T02:37:35.977Z,3.60
2022-12-03T02:40:10.236Z,3.60
2022-12-03T02:42:38.628Z,3.60
2022-12-03T02:45:33.773Z,3.50
2022-12-03T02:48:08.721Z,3.50
2022-12-03T02:50:42.394Z,3.50
2022-12-03T02:53:20.026Z,3.40
2022-12-03T02:55:48.422Z,3.50
2022-12-03T02:58:16.805Z,3.50
2022-12-03T03:00:45.731Z,3.60
2022-12-03T03:03:13.214Z,3.60
2022-12-03T03:05:41.495Z,3.50
2022-12-03T03:08:10.114Z,3.50
2022-12-03T03:10:39.066Z,3.50
2022-12-03T03:13:16.807Z,3.50
2022-12-03T03:15:43.813Z,3.50
2022-12-03T03:18:12.519Z,3.50
2022-12-03T03:20:40.370Z,3.50
2022-12-03T03:23:13.328Z,3.50
2022-12-03T03:25:43.684Z,3.50
2022-12-03T03:28:11.182Z,3.50
2022-12-03T03:30:39.657Z,3.50
2022-12-03T03:33:07.029Z,3.50
2022-12-03T03:35:34.149Z,3.50
2022-12-03T03:38:01.010Z,3.50
2022-12-03T03:40:28.179Z,3.50
2022-12-03T03:42:56.018Z,3.50
2022-12-03T03:45:28.885Z,3.70
2022-12-03T03:47:57.986Z,3.50
2022-12-03T03:50:25.576Z,3.50
2022-12-03T03:52:52.747Z,3.40
2022-12-03T03:55:20.452Z,3.40
2022-12-03T03:57:48.999Z,3.40
2022-12-03T04:00:16.091Z,3.30
2022-12-03T04:02:43.737Z,3.30
2022-12-03T04:05:20.005Z,3.30
2022-12-03T04:07:47.470Z,3.30
2022-12-03T04:10:33.727Z,3.30
2022-12-03T04:13:01.296Z,3.20
2022-12-03T04:15:28.298Z,3.20
2022-12-03T04:18:14.212Z,3.20
2022-12-03T04:20:41.129Z,3.10
2022-12-03T04:23:08.706Z,3.10
2022-12-03T04:25:53.896Z,3.20
2022-12-03T04:28:39.510Z,3.10
2022-12-03T04:31:25.285Z,3.10
2022-12-03T04:34:11.415Z,3.10
2022-12-03T04:36:38.635Z,3.10
2022-12-03T04:39:05.371Z,3.10
2022-12-03T04:41:32.108Z,3.10
2022-12-03T04:44:17.768Z,3.10
2022-12-03T04:46:45.550Z,3.10
2022-12-03T04:49:12.251Z,3.10
2022-12-03T04:51:39.090Z,3.10
2022-12-03T04:54:06.121Z,3.20
2022-12-03T04:56:32.949Z,3.20
2022-12-03T04:58:59.708Z,3.20
2022-12-03T05:01:26.487Z,3.20
2022-12-03T05:03:53.264Z,3.20
2022-12-03T05:06:20.009Z,3.30
2022-12-03T05:08:46.768Z,3.30
2022-12-03T05:11:13.642Z,3.30
2022-12-03T05:13:40.361Z,3.20
2022-12-03T05:16:07.389Z,3.20
2022-12-03T05:18:34.101Z,3.30
2022-12-03T05:21:00.846Z,3.20
2022-12-03T05:23:28.173Z,3.20
2022-12-03T05:25:54.975Z,3.10
2022-12-03T05:28:23.208Z,3.10
2022-12-03T05:30:50.928Z,3.10
2022-12-03T05:33:17.962Z,3.10
2022-12-03T05:35:44.868Z,3.10
2022-12-03T05:38:11.667Z,3.10
2022-12-03T05:40:38.610Z,3.00
2022-12-03T05:43:05.426Z,3.00
2022-12-03T05:45:39.860Z,3.00
2022-12-03T05:48:09.739Z,3.10
2022-12-03T05:50:37.747Z,3.10
2022-12-03T05:53:04.781Z,3.00
2022-12-03T05:55:31.897Z,3.00
2022-12-03T05:57:58.748Z,2.90
2022-12-03T06:00:28.569Z,2.90
2022-12-03T06:02:55.694Z,2.90
2022-12-03T06:05:23.762Z,2.90
2022-12-03T06:07:52.270Z,2.90
2022-12-03T06:10:21.997Z,2.90
2022-12-03T06:12:48.709Z,2.90
2022-12-03T06:15:15.659Z,2.80
2022-12-03T06:17:42.449Z,2.80
2022-12-03T06:20:13.542Z,2.80
2022-12-03T06:22:40.483Z,2.80
2022-12-03T06:25:07.683Z,2.80
2022-12-03T06:27:35.413Z,2.80
2022-12-03T06:30:02.836Z,2.80
2022-12-03T06:32:29.800Z,2.80
2022-12-03T06:34:56.678Z,2.80
2022-12-03T06:37:23.464Z,2.80
2022-12-03T06:39:52.758Z,2.80
2022-12-03T06:42:19.425Z,2.70
2022-12-03T06:44:46.074Z,2.70
2022-12-03T06:47:12.771Z,2.70
2022-12-03T06:49:39.476Z,2.70
2022-12-03T06:52:06.348Z,2.70
2022-12-03T06:54:33.080Z,2.70
2022-12-03T06:57:05.988Z,2.70
2022-12-03T06:59:35.590Z,2.70
2022-12-03T07:02:03.823Z,2.70
2022-12-03T07:04:31.056Z,2.60
2022-12-03T07:06:59.067Z,2.70
2022-12-03T07:09:25.974Z,2.70
2022-12-03T07:11:53.016Z,2.70
2022-12-03T07:14:20.025Z,2.80
2022-12-03T07:16:47.593Z,2.80
2022-12-03T07:19:14.804Z,2.80
2022-12-03T07:21:41.677Z,2.80
2022-12-03T07:24:08.552Z,2.80
2022-12-03T07:26:35.241Z,2.90
2022-12-03T07:29:02.011Z,2.80
2022-12-03T07:31:28.922Z,2.90
2022-12-03T07:33:55.625Z,2.90
2022-12-03T07:36:22.343Z,2.90
2022-12-03T07:38:49.305Z,3.00
2022-12-03T07:41:15.964Z,2.90
2022-12-03T07:43:42.763Z,2.90
2022-12-03T07:46:09.614Z,2.90
2022-12-03T07:48:36.379Z,2.90
2022-12-03T07:51:05.958Z,2.90
2022-12-03T07:53:32.775Z,3.00
2022-12-03T07:55:59.498Z,3.00
2022-12-03T07:58:26.192Z,3.00
2022-12-03T08:00:53.036Z,3.00
2022-12-03T08:03:19.793Z,3.00
2022-12-03T08:05:46.511Z,3.20
2022-12-03T08:08:13.381Z,3.00
2022-12-03T08:10:40.221Z,3.00
2022-12-03T08:13:15.671Z,3.10
2022-12-03T08:15:43.125Z,3.20
2022-12-03T08:18:16.397Z,3.10
2022-12-03T08:20:45.100Z,3.10
2022-12-03T08:23:29.923Z,3.10
2022-12-03T08:26:02.019Z,2.90
2022-12-03T08:28:28.753Z,2.80
2022-12-03T08:31:03.319Z,2.90
2022-12-03T08:33:35.930Z,2.80
2022-12-03T08:36:21.482Z,2.70
2022-12-03T08:38:55.042Z,2.70
2022-12-03T08:41:41.924Z,2.40
2022-12-03T08:44:28.298Z,2.30
2022-12-03T08:47:10.019Z,2.30
2022-12-03T08:49:37.528Z,2.30
2022-12-03T08:52:15.919Z,2.30
2022-12-03T08:54:47.646Z,2.30
2022-12-03T08:57:34.419Z,2.30
2022-12-03T09:00:22.542Z,2.30
2022-12-03T09:02:55.287Z,2.20
2022-12-03T09:05:26.142Z,2.20
2022-12-03T09:07:52.887Z,2.10
2022-12-03T09:10:19.621Z,2.20
2022-12-03T09:12:46.382Z,2.10
2022-12-03T09:15:13.149Z,2.20
2022-12-03T09:17:39.887Z,2.20
2022-12-03T09:20:07.367Z,2.10
2022-12-03T09:22:34.146Z,2.20
2022-12-03T09:25:00.843Z,2.20
2022-12-03T09:27:27.535Z,2.30
2022-12-03T09:29:54.208Z,2.40
2022-12-03T09:32:21.025Z,2.40
2022-12-03T09:34:47.840Z,2.30
2022-12-03T09:37:14.567Z,2.30
2022-12-03T09:39:41.248Z,2.30
2022-12-03T09:42:08.456Z,2.30
2022-12-03T09:44:36.172Z,2.30
2022-12-03T09:47:04.841Z,2.40
2022-12-03T09:49:33.489Z,2.50
2022-12-03T09:52:03.088Z,2.50
2022-12-03T09:54:30.880Z,2.50
2022-12-03T09:57:00.825Z,2.40
2022-12-03T09:59:33.232Z,2.30
2022-12-03T10:02:00.639Z,2.30
2022-12-03T10:04:31.480Z,2.30
2022-12-03T10:06:59.039Z,2.30
2022-12-03T10:09:28.230Z,2.30
2022-12-03T10:11:57.265Z,2.30
2022-12-03T10:14:24.097Z,2.30
2022-12-03T10:16:50.987Z,2.30
2022-12-03T10:19:30.332Z,2.20
2022-12-03T10:21:57.399Z,2.10
2022-12-03T10:24:33.188Z,2.10
2022-12-03T10:27:02.074Z,2.10
2022-12-03T10:29:35.062Z,2.10
2022-12-03T10:32:08.217Z,2.10
2022-12-03T10:34:40.435Z,2.10
2022-12-03T10:37:14.692Z,2.00
2022-12-03T10:40:10.903Z,2.10
2022-12-03T10:42:39.981Z,2.10
2022-12-03T10:45:20.577Z,2.10
2022-12-03T10:48:27.393Z,2.10
2022-12-03T10:51:10.156Z,2.10
2022-12-03T10:53:39.655Z,1.90
2022-12-03T10:56:08.292Z,2.10
2022-12-03T10:58:37.780Z,2.00
2022-12-03T11:01:15.813Z,2.00
2022-12-03T11:03:42.720Z,2.10
2022-12-03T11:06:15.374Z,2.00
2022-12-03T11:08:54.752Z,2.00
2022-12-03T11:11:28.905Z,1.70
2022-12-03T11:13:58.152Z,1.90
2022-12-03T11:16:40.190Z,1.90
2022-12-03T11:19:12.914Z,2.00
2022-12-03T11:22:05.739Z,2.00
2022-12-03T11:24:41.540Z,2.10
2022-12-03T11:27:18.625Z,2.10
2022-12-03T11:30:01.820Z,2.10
2022-12-03T11:32:43.719Z,2.10
2022-12-03T11:35:23.665Z,2.20
2022-12-03T11:37:50.451Z,2.20
2022-12-03T11:40:17.236Z,2.10
2022-12-03T11:42:45.827Z,2.10
2022-12-03T11:45:27.860Z,2.10
2022-12-03T11:48:04.909Z,2.00
2022-12-03T11:50:40.376Z,2.00
2022-12-03T11:53:23.703Z,2.00
2022-12-03T11:56:08.905Z,2.00
2022-12-03T11:58:38.682Z,2.00
2022-12-03T12:01:07.747Z,2.00
2022-12-03T12:03:43.561Z,2.10
2022-12-03T12:06:13.307Z,2.10
2022-12-03T12:08:50.885Z,2.20
2022-12-03T12:11:26.846Z,2.20
2022-12-03T12:14:03.839Z,2.20
2022-12-03T12:16:55.483Z,2.20
2022-12-03T12:19:32.761Z,2.20
2022-12-03T12:22:28.636Z,2.30
2022-12-03T12:25:02.894Z,2.20
2022-12-03T12:27:31.241Z,2.20
2022-12-03T12:30:00.623Z,2.30
2022-12-03T12:32:34.123Z,2.10
2022-12-03T12:35:16.450Z,2.20
2022-12-03T12:38:12.687Z,2.30
2022-12-03T12:40:41.599Z,2.30
2022-12-03T12:43:23.452Z,2.30
2022-12-03T12:45:55.217Z,2.30
2022-12-03T12:48:23.402Z,2.30
2022-12-03T12:50:58.605Z,2.20
2022-12-03T12:53:31.709Z,2.30
2022-12-03T12:56:01.022Z,2.30
2022-12-03T12:58:32.334Z,2.30
2022-12-03T13:01:04.318Z,2.20
2022-12-03T13:03:34.907Z,2.10
2022-12-03T13:06:02.024Z,2.10
2022-12-03T13:08:39.000Z,2.00
2022-12-03T13:11:06.455Z,2.00
2022-12-03T13:13:43.629Z,2.10
2022-12-03T13:16:31.281Z,2.20
2022-12-03T13:19:02.040Z,2.20
2022-12-03T13:21:40.231Z,2.30
2022-12-03T13:24:35.224Z,2.40
2022-12-03T13:27:29.524Z,2.40
2022-12-03T13:30:01.132Z,2.40
2022-12-03T13:32:35.970Z,2.30
2022-12-03T13:35:09.840Z,2.20
2022-12-03T13:37:37.506Z,2.30
2022-12-03T13:40:36.272Z,2.20
2022-12-03T13:43:18.677Z,2.10
2022-12-03T13:45:47.285Z,2.20
2022-12-03T13:48:23.012Z,2.30
2022-12-03T13:50:51.562Z,2.30
2022-12-03T13:53:28.055Z,2.30
2022-12-03T13:56:04.163Z,2.40
2022-12-03T13:58:30.862Z,2.40
2022-12-03T14:00:57.546Z,2.40
2022-12-03T14:03:24.364Z,2.40
2022-12-03T14:05:51.039Z,2.40
2022-12-03T14:08:17.836Z,2.40
2022-12-03T14:10:44.700Z,2.40
2022-12-03T14:13:11.385Z,2.40
2022-12-03T14:15:38.114Z,2.40
2022-12-03T14:18:04.874Z,2.40
2022-12-03T14:20:32.101Z,2.40
2022-12-03T14:22:59.622Z,2.40
2022-12-03T14:25:27.038Z,2.40
2022-12-03T14:27:53.730Z,2.40
2022-12-03T14:30:20.558Z,2.30
2022-12-03T14:32:47.420Z,2.30
2022-12-03T14:35:14.285Z,2.30
2022-12-03T14:37:41.031Z,2.20
2022-12-03T14:40:09.064Z,2.20
2022-12-03T14:42:36.553Z,2.20
2022-12-03T14:45:03.717Z,2.20
2022-12-03T14:47:30.395Z,2.10
2022-12-03T14:49:57.289Z,2.00
2022-12-03T14:52:24.153Z,2.00
2022-12-03T14:54:50.864Z,2.00
2022-12-03T14:57:17.761Z,2.00
2022-12-03T14:59:46.986Z,2.00
2022-12-03T15:02:16.497Z,2.10
2022-12-03T15:04:43.216Z,2.00
2022-12-03T15:07:09.983Z,2.00
2022-12-03T15:09:36.687Z,2.00
2022-12-03T15:12:04.644Z,2.00
2022-12-03T15:14:31.393Z,2.00
2022-12-03T15:16:58.131Z,1.90
2022-12-03T15:19:24.964Z,1.90
2022-12-03T15:21:51.723Z,2.00
2022-12-03T15:24:18.501Z,1.90
2022-12-03T15:26:45.251Z,1.90
2022-12-03T15:29:12.153Z,2.00
2022-12-03T15:31:38.926Z,1.90
2022-12-03T15:34:05.677Z,1.90
2022-12-03T15:36:32.364Z,1.90
2022-12-03T15:38:59.109Z,1.90
2022-12-03T15:41:29.473Z,1.80
2022-12-03T15:43:58.534Z,1.70
2022-12-03T15:46:27.745Z,1.70
2022-12-03T15:48:55.577Z,1.70
2022-12-03T15:51:22.827Z,1.70
2022-12-03T15:53:49.739Z,1.70
2022-12-03T15:56:16.683Z,1.60
2022-12-03T15:58:43.487Z,1.60
2022-12-03T16:01:13.300Z,1.70
2022-12-03T16:03:40.187Z,1.70
2022-12-03T16:06:07.155Z,1.60
2022-12-03T16:08:33.856Z,1.60
2022-12-03T16:11:00.576Z,1.60
2022-12-03T16:13:27.279Z,1.60
2022-12-03T16:15:54.056Z,1.80
2022-12-03T16:18:20.802Z,1.70
2022-12-03T16:20:47.649Z,1.80
2022-12-03T16:23:14.441Z,1.80
2022-12-03T16:25:41.221Z,1.60
2022-12-03T16:28:08.235Z,1.70
2022-12-03T16:30:36.047Z,1.80
2022-12-03T16:33:02.848Z,1.80
2022-12-03T16:35:30.804Z,1.80
2022-12-03T16:37:57.575Z,1.90
2022-12-03T16:40:24.289Z,1.70
2022-12-03T16:42:50.964Z,1.70
2022-12-03T16:45:40.735Z,1.70
2022-12-03T16:48:07.424Z,1.70
2022-12-03T16:50:37.175Z,1.70
2022-12-03T16:53:04.130Z,1.70
2022-12-03T16:55:30.903Z,1.70
2022-12-03T16:57:57.603Z,1.80
2022-12-03T17:00:26.334Z,1.80
2022-12-03T17:02:53.080Z,1.80
2022-12-03T17:05:19.836Z,1.80
2022-12-03T17:07:46.575Z,1.80
2022-12-03T17:10:13.456Z,1.70
2022-12-03T17:13:07.676Z,1.70
2022-12-03T17:15:26.923Z,1.60
2022-12-03T17:17:53.681Z,1.50
2022-12-03T17:20:20.423Z,1.50
2022-12-03T17:22:47.217Z,1.50
2022-12-03T17:25:14.207Z,1.60
2022-12-03T17:27:45.181Z,1.60
2022-12-03T17:30:12.573Z,1.60
2022-12-03T17:32:39.420Z,1.60
2022-12-03T17:35:06.725Z,1.60
2022-12-03T17:37:33.543Z,1.60
2022-12-03T17:40:00.332Z,1.60
2022-12-03T17:42:27.085Z,1.60
2022-12-03T17:44:53.798Z,1.60
2022-12-03T17:47:20.538Z,1.60
2022-12-03T17:49:47.238Z,1.60
2022-12-03T17:52:14.047Z,1.60
2022-12-03T17:55:08.343Z,1.60
2022-12-03T17:57:27.605Z,1.50
2022-12-03T17:59:54.408Z,1.60
2022-12-03T18:02:21.399Z,1.60
2022-12-03T18:04:48.108Z,1.60
2022-12-03T18:07:14.849Z,1.60
2022-12-03T18:09:42.239Z,1.70
2022-12-03T18:12:08.957Z,1.70
2022-12-03T18:14:35.661Z,1.70
2022-12-03T18:17:02.355Z,1.60
2022-12-03T18:19:29.106Z,1.60
2022-12-03T18:21:55.884Z,1.60
2022-12-03T18:24:22.746Z,1.70
2022-12-03T18:26:50.453Z,1.70
2022-12-03T18:29:17.294Z,1.70
2022-12-03T18:31:44.201Z,1.70
2022-12-03T18:34:10.934Z,1.70
2022-12-03T18:36:37.987Z,1.70
2022-12-03T18:39:09.360Z,1.70
2022-12-03T18:41:36.780Z,1.70
2022-12-03T18:44:09.522Z,1.70
2022-12-03T18:46:53.822Z,1.70
2022-12-03T18:49:20.932Z,1.70
2022-12-03T18:51:48.526Z,1.70
2022-12-03T18:54:15.735Z,1.70
2022-12-03T18:56:42.483Z,1.80
2022-12-03T18:59:09.466Z,1.80
2022-12-03T19:01:36.610Z,1.80
2022-12-03T19:04:03.799Z,1.70
2022-12-03T19:06:33.435Z,1.70
2022-12-03T19:09:00.361Z,1.70
2022-12-03T19:11:27.498Z,1.70
2022-12-03T19:13:54.319Z,1.70
2022-12-03T19:16:23.374Z,1.70
2022-12-03T19:18:50.128Z,1.70
2022-12-03T19:21:18.318Z,1.70
2022-12-03T19:24:15.993Z,1.70
2022-12-03T19:26:32.198Z,1.70
2022-12-03T19:28:58.983Z,1.70
2022-12-03T19:31:26.108Z,1.70
2022-12-03T19:33:54.412Z,1.70
2022-12-03T19:36:29.822Z,1.60
2022-12-03T19:38:58.768Z,1.60
2022-12-03T19:41:27.444Z,1.60
2022-12-03T19:43:55.577Z,1.60
2022-12-03T19:46:24.175Z,1.60
2022-12-03T19:48:51.054Z,1.60
2022-12-03T19:51:33.998Z,1.60
2022-12-03T19:54:01.333Z,1.50
2022-12-03T19:56:30.428Z,1.40
2022-12-03T19:58:57.897Z,1.30
2022-12-03T20:01:27.969Z,1.30
2022-12-03T20:03:56.987Z,1.40
2022-12-03T20:06:26.624Z,1.40
2022-12-03T20:09:02.108Z,1.30
2022-12-03T20:11:32.387Z,1.30
2022-12-03T20:14:01.571Z,1.30
2022-12-03T20:16:29.341Z,1.30
2022-12-03T20:18:59.109Z,1.40
2022-12-03T20:21:26.807Z,1.40
2022-12-03T20:23:53.678Z,1.50
2022-12-03T20:26:22.000Z,1.40
2022-12-03T20:28:49.195Z,1.40
2022-12-03T20:31:18.967Z,1.40
2022-12-03T20:33:48.095Z,1.50
2022-12-03T20:36:17.119Z,1.50
2022-12-03T20:38:44.410Z,1.50
2022-12-03T20:41:14.212Z,1.50
2022-12-03T20:43:41.157Z,1.50
2022-12-03T20:46:08.955Z,1.40
2022-12-03T20:48:36.031Z,1.30
2022-12-03T20:51:04.955Z,1.30
2022-12-03T20:53:31.967Z,1.30
2022-12-03T20:55:59.926Z,1.40
2022-12-03T20:58:27.583Z,1.40
2022-12-03T21:00:54.768Z,1.40
2022-12-03T21:03:21.658Z,1.30
2022-12-03T21:05:48.390Z,1.30
2022-12-03T21:08:15.203Z,1.30
2022-12-03T21:10:45.989Z,1.20
2022-12-03T21:13:17.604Z,1.30
2022-12-03T21:15:47.928Z,1.30
2022-12-03T21:18:16.668Z,1.30
2022-12-03T21:20:47.536Z,1.30
2022-12-03T21:23:14.804Z,1.30
2022-12-03T21:25:41.648Z,1.30
2022-12-03T21:28:09.794Z,1.30
2022-12-03T21:30:39.990Z,1.30
2022-12-03T21:33:07.224Z,1.30
2022-12-03T21:35:37.453Z,1.30
2022-12-03T21:38:04.627Z,1.30
2022-12-03T21:40:31.491Z,1.40
2022-12-03T21:42:58.250Z,1.40
2022-12-03T21:45:25.099Z,1.40
2022-12-03T21:47:52.098Z,1.30
2022-12-03T21:50:19.173Z,1.30
2022-12-03T21:52:45.896Z,1.20
2022-12-03T21:55:12.646Z,1.30
2022-12-03T21:57:39.466Z,1.30
2022-12-03T22:00:08.464Z,1.30
2022-12-03T22:02:35.268Z,1.30
2022-12-03T22:05:01.954Z,1.40
2022-12-03T22:07:28.694Z,1.40
2022-12-03T22:09:55.703Z,1.50
2022-12-03T22:12:22.578Z,1.40
2022-12-03T22:14:49.299Z,1.40
2022-12-03T22:17:15.993Z,1.30
2022-12-03T22:19:42.787Z,1.40
2022-12-03T22:22:09.540Z,1.40
2022-12-03T22:24:36.221Z,1.40
2022-12-03T22:27:03.998Z,1.50
2022-12-03T22:29:31.103Z,1.50
2022-12-03T22:31:57.838Z,1.50
2022-12-03T22:34:24.581Z,1.50
2022-12-03T22:36:51.426Z,1.40
2022-12-03T22:39:18.194Z,1.40
2022-12-03T22:41:44.871Z,1.40
2022-12-03T22:44:11.632Z,1.50
2022-12-03T22:46:38.412Z,1.50
2022-12-03T22:49:07.308Z,1.50
2022-12-03T22:51:34.547Z,1.50
2022-12-03T22:54:02.018Z,1.50
2022-12-03T22:56:30.338Z,1.50
2022-12-03T22:58:57.055Z,1.50
2022-12-03T23:01:30.293Z,1.50
2022-12-03T23:03:57.379Z,1.50
2022-12-03T23:06:24.395Z,1.50
2022-12-03T23:08:52.031Z,1.50
2022-12-03T23:11:19.646Z,1.50
2022-12-03T23:13:47.051Z,1.50
2022-12-03T23:16:19.908Z,1.50
2022-12-03T23:18:46.730Z,1.50
2022-12-03T23:21:19.231Z,1.50
2022-12-03T23:23:48.415Z,1.60
2022-12-03T23:26:16.071Z,1.50
2022-12-03T23:28:45.419Z,1.50
2022-12-03T23:31:18.144Z,1.50
2022-12-03T23:33:45.264Z,1.50
2022-12-03T23:36:12.584Z,1.50
2022-12-03T23:38:40.145Z,1.60
2022-12-03T23:41:08.886Z,1.50
2022-12-03T23:43:35.714Z,1.50
2022-12-03T23:46:08.332Z,1.50
2022-12-03T23:48:36.251Z,1.50
2022-12-03T23:51:12.052Z,1.60
2022-12-03T23:53:39.778Z,1.60
2022-12-03T23:56:11.635Z,1.60
2022-12-03T23:58:38.683Z,1.60
